createdAt,value
2024-04-21T12:40:47.703Z,99259.22
2024-04-21T12:43:51.547Z,99248.72
2024-04-21T12:46:56.868Z,99258.06
2024-04-21T12:49:59.630Z,99253.28
2024-04-21T12:53:04.847Z,99252.31
2024-04-21T12:56:10.910Z,99253.47
2024-04-21T12:59:16.377Z,99254.34
2024-04-21T13:02:22.174Z,99250.53
2024-04-21T13:05:24.748Z,99256.75
2024-04-21T13:08:31.388Z,99253.03
2024-04-21T13:11:39.309Z,99255.44
2024-04-21T13:14:44.825Z,99250.28
2024-04-21T13:17:51.526Z,99247.66
2024-04-21T13:20:54.154Z,99254.41
2024-04-21T13:23:59.568Z,99251.78
2024-04-21T13:27:05.021Z,99258.47
2024-04-21T13:30:12.062Z,99247.22
2024-04-21T13:33:17.487Z,99250.13
2024-04-21T13:36:31.445Z,99240.28
2024-04-21T13:39:40.158Z,99246.66
2024-04-21T13:42:45.472Z,99246.44
2024-04-21T13:45:53.239Z,99249.22
2024-04-21T13:48:58.618Z,99236.38
2024-04-21T13:52:04.111Z,99249.53
2024-04-21T13:55:07.587Z,99246.91
2024-04-21T13:58:18.539Z,99250.00
2024-04-21T14:01:22.787Z,99240.78
2024-04-21T14:04:28.259Z,99241.16
2024-04-21T14:07:33.342Z,99255.16
2024-04-21T14:10:38.784Z,99249.41
2024-04-21T14:13:46.501Z,99242.72
2024-04-21T14:16:51.694Z,99259.22
2024-04-21T14:19:54.115Z,99254.94
2024-04-21T14:22:59.196Z,99251.50
2024-04-21T14:26:01.596Z,99256.03
2024-04-21T14:29:09.902Z,99255.28
2024-04-21T14:32:12.426Z,99257.47
2024-04-21T14:35:17.559Z,99257.19
2024-04-21T14:38:20.125Z,99247.41
2024-04-21T14:41:25.325Z,99257.59
2024-04-21T14:44:38.748Z,99256.81
2024-04-21T14:47:45.973Z,99256.44
2024-04-21T14:50:58.060Z,99254.59
2024-04-21T14:54:00.868Z,99251.31
2024-04-21T14:57:05.971Z,99261.88
2024-04-21T15:00:13.349Z,99248.88
2024-04-21T15:03:18.570Z,99254.88
2024-04-21T15:06:21.172Z,99260.50
2024-04-21T15:09:26.632Z,99258.28
2024-04-21T15:12:31.827Z,99258.38
2024-04-21T15:15:39.600Z,99258.50
2024-04-21T15:18:42.041Z,99254.97
2024-04-21T15:21:47.144Z,99256.50
2024-04-21T15:24:49.713Z,99260.47
2024-04-21T15:27:54.976Z,99266.50
2024-04-21T15:31:01.087Z,99268.16
2024-04-21T15:34:06.925Z,99271.91
2024-04-21T15:37:09.404Z,99267.44
2024-04-21T15:40:15.938Z,99277.84
2024-04-21T15:43:21.121Z,99273.97
2024-04-21T15:46:31.835Z,99267.72
2024-04-21T15:49:37.366Z,99265.38
2024-04-21T15:52:40.244Z,99266.78
2024-04-21T15:55:47.200Z,99265.81
2024-04-21T15:58:52.410Z,99262.72
2024-04-21T16:02:00.191Z,99266.03
2024-04-21T16:05:04.131Z,99261.31
2024-04-21T16:08:10.228Z,99262.44
2024-04-21T16:11:12.821Z,99261.66
2024-04-21T16:14:18.303Z,99261.06
2024-04-21T16:17:24.102Z,99253.78
2024-04-21T16:20:29.485Z,99254.25
2024-04-21T16:23:34.648Z,99259.03
2024-04-21T16:26:39.756Z,99260.09
2024-04-21T16:29:43.275Z,99258.09
2024-04-21T16:32:51.210Z,99265.28
2024-04-21T16:35:54.380Z,99259.25
2024-04-21T16:39:00.016Z,99263.25
2024-04-21T16:42:03.557Z,99275.53
2024-04-21T16:45:13.135Z,99272.09
2024-04-21T16:48:23.153Z,99269.13
2024-04-21T16:51:30.345Z,99269.34
2024-04-21T16:54:33.402Z,99278.38
2024-04-21T16:57:41.027Z,99275.53
2024-04-21T17:00:47.179Z,99275.19
2024-04-21T17:03:53.156Z,99271.97
2024-04-21T17:07:00.649Z,99270.84
2024-04-21T17:10:03.932Z,99272.47
2024-04-21T17:13:10.706Z,99277.53
2024-04-21T17:16:15.905Z,99280.25
2024-04-21T17:19:23.936Z,99289.50
2024-04-21T17:22:29.301Z,99286.97
2024-04-21T17:25:32.253Z,99286.19
2024-04-21T17:28:38.019Z,99298.44
2024-04-21T17:31:43.103Z,99291.91
2024-04-21T17:34:51.489Z,99301.53
2024-04-21T17:37:54.686Z,99298.78
2024-04-21T17:41:00.328Z,99310.50
2024-04-21T17:44:06.486Z,99305.16
2024-04-21T17:47:11.701Z,99315.63
2024-04-21T17:50:19.761Z,99319.84
2024-04-21T17:53:22.659Z,99323.91
2024-04-21T17:56:27.778Z,99323.78
2024-04-21T17:59:33.356Z,99326.19
2024-04-21T18:02:35.855Z,99329.16
2024-04-21T18:05:44.035Z,99329.06
2024-04-21T18:08:49.180Z,99329.81
2024-04-21T18:11:51.597Z,99328.44
2024-04-21T18:14:56.751Z,99334.84
2024-04-21T18:18:02.120Z,99330.78
2024-04-21T18:21:07.428Z,99338.75
2024-04-21T18:24:14.228Z,99338.81
2024-04-21T18:27:16.793Z,99344.31
2024-04-21T18:30:21.924Z,99337.16
2024-04-21T18:33:24.452Z,99346.50
2024-04-21T18:36:32.214Z,99348.78
2024-04-21T18:39:34.896Z,99348.53
2024-04-21T18:42:40.059Z,99343.75
2024-04-21T18:45:45.768Z,99354.91
2024-04-21T18:48:53.648Z,99356.00
2024-04-21T18:51:58.878Z,99349.50
2024-04-21T18:56:24.303Z,99352.03
2024-04-21T18:59:33.835Z,99357.06
2024-04-21T19:02:37.034Z,99367.75
2024-04-21T19:05:46.814Z,99356.31
2024-04-21T19:09:25.292Z,99355.94
2024-04-21T19:12:29.004Z,99361.22
2024-04-21T19:15:36.852Z,99353.53
2024-04-21T19:18:45.980Z,99361.50
2024-04-21T19:22:24.188Z,99359.88
2024-04-21T19:25:33.122Z,99356.56
2024-04-21T19:28:40.101Z,99360.75
2024-04-21T19:31:44.207Z,99356.56
2024-04-21T19:34:49.495Z,99359.00
2024-04-21T19:37:54.056Z,99352.28
2024-04-21T19:41:01.980Z,99354.16
2024-04-21T19:44:04.992Z,99354.34
2024-04-21T19:47:10.430Z,99355.13
2024-04-21T19:50:15.027Z,99347.75
2024-04-21T19:53:22.417Z,99347.69
2024-04-21T19:56:34.066Z,99342.09
2024-04-21T19:59:36.700Z,99345.25
2024-04-21T20:02:44.131Z,99342.59
2024-04-21T20:05:46.642Z,99341.91
2024-04-21T20:08:54.151Z,99340.41
2024-04-21T20:12:02.184Z,99351.78
2024-04-21T20:15:24.200Z,99346.06
2024-04-21T20:18:41.690Z,99351.78
2024-04-21T20:21:47.773Z,99358.06
2024-04-21T20:24:55.539Z,99349.94
2024-04-21T20:28:05.674Z,99350.53
2024-04-21T20:31:11.373Z,99349.31
2024-04-21T20:34:16.820Z,99348.63
2024-04-21T20:37:19.544Z,99350.25
2024-04-21T20:40:24.936Z,99358.09
2024-04-21T20:43:31.346Z,99356.25
2024-04-21T20:46:36.851Z,99358.31
2024-04-21T20:49:39.506Z,99355.31
2024-04-21T20:52:44.801Z,99359.03
2024-04-21T20:55:47.524Z,99360.38
2024-04-21T20:58:55.833Z,99365.59
2024-04-21T21:02:01.242Z,99367.53
2024-04-21T21:05:07.273Z,99371.53
2024-04-21T21:08:10.139Z,99370.31
2024-04-21T21:11:15.559Z,99367.75
2024-04-21T21:14:20.839Z,99367.53
2024-04-21T21:17:47.106Z,99364.22
2024-04-21T21:20:55.922Z,99362.66
2024-04-21T21:23:58.632Z,99364.78
2024-04-21T21:27:03.686Z,99370.16
2024-04-21T21:30:12.524Z,99366.16
2024-04-21T21:33:15.282Z,99372.03
2024-04-21T21:36:20.474Z,99378.41
2024-04-21T21:39:23.053Z,99382.22
2024-04-21T21:42:31.325Z,99384.78
2024-04-21T21:45:41.123Z,99386.66
2024-04-21T21:48:47.643Z,99381.41
2024-04-21T21:51:50.916Z,99391.38
2024-04-21T21:54:56.129Z,99388.19
2024-04-21T21:57:58.560Z,99392.09
2024-04-21T22:01:07.210Z,99390.84
2024-04-21T22:04:12.866Z,99393.22
2024-04-21T22:07:18.145Z,99399.19
2024-04-21T22:10:26.053Z,99400.06
2024-04-21T22:13:31.398Z,99400.13
2024-04-21T22:16:39.177Z,99406.16
2024-04-21T22:19:44.475Z,99399.50
2024-04-21T22:22:50.698Z,99409.50
2024-04-21T22:25:57.488Z,99399.41
2024-04-21T22:29:00.402Z,99395.91
2024-04-21T22:32:08.971Z,99395.16
2024-04-21T22:35:11.545Z,99397.66
2024-04-21T22:38:16.800Z,99389.59
2024-04-21T22:41:19.386Z,99387.53
2024-04-21T22:44:24.965Z,99392.44
2024-04-21T22:47:30.602Z,99398.13
2024-04-21T22:50:35.860Z,99391.44
2024-04-21T22:53:38.506Z,99386.75
2024-04-21T22:56:43.969Z,99381.94
2024-04-21T22:59:49.171Z,99387.75
2024-04-21T23:02:55.144Z,99374.63
2024-04-21T23:06:04.150Z,99380.75
2024-04-21T23:09:06.707Z,99379.66
2024-04-21T23:12:12.058Z,99379.34
2024-04-21T23:15:14.756Z,99379.06
2024-04-21T23:18:22.812Z,99379.19
2024-04-21T23:21:25.377Z,99375.28
2024-04-21T23:24:30.610Z,99373.34
2024-04-21T23:27:33.187Z,99375.34
2024-04-21T23:30:38.467Z,99378.41
2024-04-21T23:33:43.740Z,99381.56
2024-04-21T23:36:48.935Z,99384.00
2024-04-21T23:39:54.492Z,99378.03
2024-04-21T23:43:00.177Z,99374.06
2024-04-21T23:46:04.815Z,99381.41
2024-04-21T23:49:13.077Z,99370.78
2024-04-21T23:52:16.121Z,99378.34
2024-04-21T23:55:21.647Z,99372.44
2024-04-21T23:58:26.385Z,99380.22
